Wichita, KS (67209)

5:55 AM CDT on September 16, 2014 (GMT -0500)
300 North Baehr | Change Station
CLOSE
Current Station
Personal Weather Station
Location: Wichita, KS
Elevation: 1322 ft
Nearby Weather Stations
4.0 Earthquake: Guthrie, Oklahoma (14 hours ago)  

Elev 1322 ft 37.69 °N, 97.40 °W | Updated 12 minutes ago

Overcast
Overcast
59.5 °F
Feels Like 59.5 °F
N
2.2
Wind Variable Wind from ESE

Today
High -- | Low -- °F
--% Chance of Precip.
Yesterday
High -- | Low -- °F
Precip. -- in
7:12 AM 7:35 PM
Waning Gibbous, 46% visible
Pressure 30.20 in
Visibility 10.0 miles
Clouds Mostly Cloudy 2100 ft
Overcast 5500 ft
Dew Point 51 °F
Humidity 73%
Rainfall 0.00 in
Snow Depth Not available.
UV 0 out of 12
Pollen 7.10 out of 12
Air Quality Not available.
Flu Activity Not available.
SPECI KICT 161013Z 05009KT 10SM BKN021 OVC055 16/10 A3020 RMK AO2 T01610100

More Conditions Fewer Conditions

Pressure 30.20 in
Visibility 10.0 miles
Clouds Mostly Cloudy 2100 ft
Overcast 5500 ft
Dew Point 51 °F
Humidity 73%
Rainfall 0.00 in
Snow Depth Not available.
UV 0 out of 12
Pollen 7.10 out of 12
Air Quality Not available.
Flu Activity Not available.
SPECI KICT 161013Z 05009KT 10SM BKN021 OVC055 16/10 A3020 RMK AO2 T01610100

More Conditions Fewer Conditions

10-Day Weather Forecast

Almanac

Astronomy

Sep. 16, 2014 Rise Set
Actual Time 7:12 AM CDT 7:35 PM CDT
Civil Twilight 6:46 AM CDT 8:02 PM CDT
Nautical Twilight 6:15 AM CDT 8:32 PM CDT
Astronomical Twilight 5:43 AM CDT 9:04 PM CDT
Moon 12:28 AM CDT 2:55 PM CDT
Length of Visible Light 13h 15m
Length of Day
12h 23m
Tomorrow will be 2m 23s shorter.
Waning Gibbous, 46% of the Moon is Illuminated
Today
Waning Gibbous
Sep 24
New
Oct 1
First Quarter
Oct 8
Full
Oct 15
Last Quarter

Today's Extremes

State Highs State Lows

Community

WunderPhotos

Upload Photos

1,753,720 photos uploaded!

WunderBlogs® & News

Nearby

Snow Depth

Station Depth Elevation
No new snow has been reported.

Earthquake Activity

City Distance Mag. Time & Date
Guthrie, Oklahoma 127 miles 2.7 4:00 PM CDT
2014-09-15
Guthrie, Oklahoma 127 miles 3.2 3:14 PM CDT
2014-09-15
Guthrie, Oklahoma 127 miles 4.0 3:08 PM CDT
2014-09-15
Enid, Oklahoma 77 miles 3.1 8:27 AM CDT
2014-09-15
Minimum magnitude displayed is 2.5.

Coastal Water Temperatures

Place Temperature
No Stations Reporting

Nearby Weather Stations